createdAt,value
2018-12-10T00:01:27.286Z,4.72
2018-12-10T00:05:34.310Z,4.76
2018-12-10T00:09:38.345Z,4.73
2018-12-10T00:13:42.348Z,4.83
2018-12-10T00:17:46.449Z,4.71
2018-12-10T00:21:50.492Z,4.70
2018-12-10T00:25:54.494Z,4.64
2018-12-10T00:29:58.516Z,4.69
2018-12-10T00:34:02.522Z,4.73
2018-12-10T00:38:06.624Z,4.79
2018-12-10T00:42:10.583Z,4.94
2018-12-10T00:46:14.627Z,4.87
2018-12-10T00:50:19.461Z,4.75
2018-12-10T00:54:23.443Z,4.58
2018-12-10T00:58:27.394Z,4.53
2018-12-10T01:02:31.366Z,4.42
2018-12-10T01:06:35.346Z,4.28
2018-12-10T01:10:39.295Z,4.12
2018-12-10T01:14:43.265Z,4.22
2018-12-10T01:18:47.316Z,4.22
2018-12-10T01:22:52.286Z,4.34
2018-12-10T01:26:56.323Z,4.50
2018-12-10T01:31:00.412Z,4.57
2018-12-10T01:35:04.640Z,4.59
2018-12-10T01:39:08.701Z,4.59
2018-12-10T01:43:12.663Z,4.54
2018-12-10T01:47:16.741Z,4.50
2018-12-10T01:51:20.718Z,4.43
2018-12-10T01:55:24.724Z,4.46
2018-12-10T01:59:28.643Z,4.45
2018-12-10T02:03:32.713Z,4.49
2018-12-10T02:07:36.714Z,4.37
2018-12-10T02:11:40.715Z,4.32
2018-12-10T02:15:44.879Z,4.36
2018-12-10T02:19:48.864Z,4.40
2018-12-10T02:23:52.920Z,4.46
2018-12-10T02:27:56.916Z,4.46
2018-12-10T02:32:00.919Z,4.49
2018-12-10T02:36:05.065Z,4.53
2018-12-10T02:40:09.117Z,4.56
2018-12-10T02:44:13.208Z,4.42
2018-12-10T02:48:17.451Z,4.42
2018-12-10T02:52:21.466Z,4.34
2018-12-10T02:56:25.454Z,4.39
2018-12-10T03:00:29.543Z,4.42
2018-12-10T03:04:33.535Z,4.42
2018-12-10T03:08:37.471Z,4.33
2018-12-10T03:12:41.461Z,4.40
2018-12-10T03:16:45.626Z,4.28
2018-12-10T03:20:49.648Z,4.18
2018-12-10T03:24:53.713Z,4.15
2018-12-10T03:28:57.746Z,4.23
2018-12-10T03:33:01.824Z,4.22
2018-12-10T03:37:05.902Z,4.40
2018-12-10T03:41:09.931Z,4.40
2018-12-10T03:45:14.049Z,4.39
2018-12-10T03:49:18.108Z,4.36
2018-12-10T03:53:22.099Z,4.45
2018-12-10T03:57:26.144Z,4.37
2018-12-10T04:01:30.139Z,4.44
2018-12-10T04:05:34.139Z,4.46
2018-12-10T04:09:38.104Z,4.31
2018-12-10T04:13:42.081Z,4.30
2018-12-10T04:17:46.188Z,4.26
2018-12-10T04:21:50.239Z,4.19
2018-12-10T04:25:54.260Z,4.32
2018-12-10T04:29:58.294Z,4.26
2018-12-10T04:34:02.310Z,4.15
2018-12-10T04:38:06.384Z,4.11
2018-12-10T04:42:10.352Z,4.08
2018-12-10T04:46:14.367Z,4.04
2018-12-10T04:50:18.451Z,3.96
2018-12-10T04:54:22.435Z,3.96
2018-12-10T04:58:26.479Z,3.97
2018-12-10T05:02:30.475Z,3.82
2018-12-10T05:07:37.176Z,3.91
2018-12-10T05:11:41.255Z,3.91
2018-12-10T05:15:45.243Z,3.94
2018-12-10T05:19:49.274Z,3.92
2018-12-10T05:24:55.722Z,3.98
2018-12-10T05:29:00.867Z,4.01
2018-12-10T05:33:04.910Z,4.01
2018-12-10T05:37:08.889Z,3.94
2018-12-10T05:41:12.919Z,4.00
2018-12-10T05:53:54.607Z,3.93
2018-12-10T05:57:58.655Z,3.87
2018-12-10T06:02:02.969Z,3.92
2018-12-10T06:06:06.980Z,3.94
2018-12-10T06:10:11.064Z,3.89
2018-12-10T06:14:15.117Z,3.96
2018-12-10T06:18:19.199Z,3.94
2018-12-10T06:22:23.176Z,4.00
2018-12-10T06:26:27.218Z,3.99
2018-12-10T06:30:31.295Z,3.92
2018-12-10T06:34:35.346Z,3.97
2018-12-10T06:38:39.307Z,3.96
2018-12-10T06:42:43.461Z,3.92
2018-12-10T06:46:47.539Z,4.01
2018-12-10T06:50:51.504Z,3.93
2018-12-10T06:54:55.493Z,3.88
2018-12-10T06:58:59.476Z,3.88
2018-12-10T07:03:06.967Z,3.92
2018-12-10T07:07:11.002Z,3.85
2018-12-10T07:11:15.057Z,3.86
2018-12-10T07:15:18.996Z,3.88
2018-12-10T07:19:22.931Z,3.93
2018-12-10T07:23:27.148Z,3.94
2018-12-10T07:27:31.112Z,3.95
2018-12-10T07:31:35.158Z,3.97
2018-12-10T07:35:39.259Z,3.97
2018-12-10T07:39:43.278Z,3.87
2018-12-10T07:43:47.347Z,3.84
2018-12-10T07:47:51.381Z,3.82
2018-12-10T07:51:55.339Z,3.80
2018-12-10T07:55:59.368Z,3.78
2018-12-10T08:00:03.675Z,3.76
2018-12-10T08:04:07.734Z,3.74
2018-12-10T08:08:11.774Z,3.75
2018-12-10T08:12:15.792Z,3.80
2018-12-10T08:16:19.746Z,3.83
2018-12-10T08:20:23.922Z,3.91
2018-12-10T08:24:27.995Z,3.99
2018-12-10T08:28:31.947Z,4.01
2018-12-10T08:32:36.079Z,4.02
2018-12-10T08:36:40.065Z,4.03
2018-12-10T08:40:44.123Z,4.03
2018-12-10T08:44:48.191Z,3.98
2018-12-10T08:48:52.150Z,4.04
2018-12-10T08:52:56.203Z,4.07
2018-12-10T08:57:01.294Z,4.06
2018-12-10T09:01:05.570Z,4.13
2018-12-10T09:05:09.976Z,4.23
2018-12-10T09:09:14.131Z,4.32
2018-12-10T09:13:18.204Z,4.38
2018-12-10T09:17:22.205Z,4.33
2018-12-10T09:21:26.208Z,4.41
2018-12-10T09:25:30.230Z,4.44
2018-12-10T09:29:34.368Z,4.45
2018-12-10T09:33:38.438Z,4.47
2018-12-10T09:37:42.461Z,4.46
2018-12-10T09:41:46.700Z,4.50
2018-12-10T09:45:50.806Z,4.50
2018-12-10T09:49:54.938Z,4.57
2018-12-10T09:53:59.036Z,4.67
2018-12-10T09:58:02.996Z,4.72
2018-12-10T10:02:12.316Z,4.71
2018-12-10T10:06:13.630Z,4.60
2018-12-10T10:10:17.666Z,4.47
2018-12-10T10:14:21.758Z,4.39
2018-12-10T10:18:25.863Z,4.29
2018-12-10T10:22:29.925Z,4.08
2018-12-10T10:26:33.991Z,4.01
2018-12-10T10:30:43.798Z,4.09
2018-12-10T10:34:44.477Z,4.22
2018-12-10T10:38:49.266Z,4.29
2018-12-10T10:42:53.303Z,4.34
2018-12-10T10:46:57.319Z,4.34
2018-12-10T10:51:01.364Z,4.46
2018-12-10T10:55:05.615Z,4.42
2018-12-10T10:59:09.691Z,4.46
2018-12-10T11:03:19.038Z,4.40
2018-12-10T11:07:23.086Z,4.42
2018-12-10T11:11:27.223Z,4.43
2018-12-10T11:15:31.219Z,4.46
2018-12-10T11:19:35.276Z,4.53
2018-12-10T11:23:39.379Z,4.51
2018-12-10T11:27:43.412Z,4.47
2018-12-10T11:31:48.536Z,4.52
2018-12-10T11:35:52.754Z,4.52
2018-12-10T11:39:56.827Z,4.53
2018-12-10T11:44:00.783Z,4.51
2018-12-10T11:48:04.943Z,4.68
2018-12-10T11:52:09.042Z,4.85
2018-12-10T11:56:13.300Z,4.79
2018-12-10T12:00:18.499Z,4.76
2018-12-10T12:04:22.554Z,4.79
2018-12-10T12:08:28.885Z,4.88
2018-12-10T12:12:32.928Z,4.92
2018-12-10T12:16:37.001Z,4.82
2018-12-10T12:20:41.034Z,4.77
2018-12-10T12:24:45.029Z,4.80
2018-12-10T12:28:49.991Z,4.77
2018-12-10T12:32:54.024Z,4.91
2018-12-10T12:38:01.695Z,4.92
2018-12-10T12:42:05.894Z,4.96
2018-12-10T12:46:09.910Z,5.02
2018-12-10T12:50:13.990Z,5.10
2018-12-10T12:54:18.933Z,5.10
2018-12-10T12:58:22.955Z,5.10
2018-12-10T13:02:27.127Z,5.13
2018-12-10T13:06:31.392Z,5.15
2018-12-10T13:10:35.419Z,5.13
2018-12-10T13:14:39.541Z,5.21
2018-12-10T13:18:46.523Z,5.25
2018-12-10T13:27:45.419Z,5.19
2018-12-10T13:31:50.667Z,5.28
2018-12-10T13:35:54.644Z,5.26
2018-12-10T13:40:00.070Z,5.13
2018-12-10T13:44:04.260Z,5.07
2018-12-10T13:48:08.415Z,4.96
2018-12-10T13:52:12.610Z,4.85
2018-12-10T13:56:16.633Z,4.92
2018-12-10T14:00:20.683Z,4.96
2018-12-10T14:04:34.580Z,4.96
2018-12-10T14:08:38.718Z,4.99
2018-12-10T14:12:42.739Z,5.04
2018-12-10T14:16:46.809Z,5.11
2018-12-10T14:20:50.854Z,5.14
2018-12-10T14:24:54.904Z,5.12
2018-12-10T14:28:59.011Z,5.18
2018-12-10T14:33:04.411Z,5.07
2018-12-10T14:37:23.680Z,4.94
2018-12-10T14:41:53.074Z,4.85
2018-12-10T14:46:20.584Z,4.72
2018-12-10T14:50:42.614Z,4.68
2018-12-10T14:55:13.295Z,4.61
2018-12-10T14:59:28.701Z,4.66
2018-12-10T15:05:00.791Z,4.56
2018-12-10T15:09:07.815Z,4.41
2018-12-10T15:13:11.882Z,4.50
2018-12-10T15:17:15.867Z,4.39
2018-12-10T15:21:19.911Z,4.52
2018-12-10T15:25:24.112Z,4.62
2018-12-10T15:29:28.200Z,4.56
2018-12-10T15:33:32.195Z,4.32
2018-12-10T15:37:36.282Z,3.92
2018-12-10T15:41:40.276Z,3.86
2018-12-10T15:45:46.292Z,3.77
2018-12-10T15:49:50.442Z,3.77
2018-12-10T15:53:54.428Z,3.68
2018-12-10T15:57:58.504Z,3.86
2018-12-10T16:02:02.588Z,3.91
2018-12-10T16:06:06.620Z,3.78
2018-12-10T16:10:10.640Z,3.85
2018-12-10T16:14:14.753Z,3.85
2018-12-10T16:18:18.948Z,3.75
2018-12-10T16:22:22.995Z,3.73
2018-12-10T16:26:27.199Z,3.67
2018-12-10T16:30:31.715Z,3.68
2018-12-10T16:34:37.007Z,3.78
2018-12-10T16:38:41.430Z,3.90
2018-12-10T16:42:45.441Z,3.85
2018-12-10T16:46:49.873Z,3.80
2018-12-10T16:50:53.969Z,3.83
2018-12-10T16:54:58.125Z,3.89
2018-12-10T16:59:02.182Z,3.89
2018-12-10T17:03:06.184Z,3.86
2018-12-10T17:07:10.226Z,3.82
2018-12-10T17:11:14.276Z,3.73
2018-12-10T17:15:18.420Z,3.80
2018-12-10T17:19:22.687Z,3.79
2018-12-10T17:23:26.728Z,3.77
2018-12-10T17:27:30.730Z,3.60
2018-12-10T17:31:34.800Z,3.56
2018-12-10T17:35:38.827Z,3.47
2018-12-10T17:39:42.882Z,3.49
2018-12-10T17:48:21.492Z,3.35
2018-12-10T17:52:25.491Z,3.41
2018-12-10T17:56:35.475Z,3.44
2018-12-10T18:00:39.743Z,3.28
2018-12-10T18:04:44.904Z,3.29
2018-12-10T18:08:49.167Z,3.21
2018-12-10T18:12:53.215Z,3.18
2018-12-10T18:17:15.635Z,3.16
2018-12-10T18:21:19.674Z,3.17
2018-12-10T18:25:23.882Z,3.17
2018-12-10T18:29:27.986Z,3.16
2018-12-10T18:33:50.107Z,3.19
2018-12-10T18:37:54.076Z,3.08
2018-12-10T18:42:00.132Z,3.05
2018-12-10T18:46:08.011Z,3.03
2018-12-10T18:50:12.851Z,3.05
2018-12-10T18:54:16.827Z,3.05
2018-12-10T18:58:20.889Z,3.08
2018-12-10T19:02:24.895Z,2.98
2018-12-10T19:11:11.326Z,2.84
2018-12-10T19:15:19.061Z,2.83
2018-12-10T19:19:23.122Z,2.76
2018-12-10T19:23:27.227Z,2.91
2018-12-10T19:27:31.322Z,2.84
2018-12-10T19:31:35.350Z,2.84
2018-12-10T19:35:53.023Z,2.75
2018-12-10T19:39:57.075Z,2.65
2018-12-10T19:44:01.207Z,2.67
2018-12-10T19:48:06.150Z,2.60
2018-12-10T19:52:10.174Z,2.58
2018-12-10T19:56:14.223Z,2.54
2018-12-10T20:06:59.525Z,2.56
2018-12-10T20:11:03.941Z,2.60
2018-12-10T20:15:09.271Z,2.56
2018-12-10T20:19:17.193Z,2.64
2018-12-10T20:23:21.126Z,2.73
2018-12-10T20:27:26.261Z,2.83
2018-12-10T20:31:30.279Z,2.83
2018-12-10T20:35:37.356Z,2.87
2018-12-10T20:39:41.531Z,2.87
2018-12-10T20:43:46.404Z,2.96
2018-12-10T20:47:50.491Z,2.98
2018-12-10T21:06:58.235Z,2.83
2018-12-10T21:19:48.027Z,2.68
2018-12-10T21:23:52.078Z,2.61
2018-12-10T21:27:56.147Z,2.65
2018-12-10T21:32:05.768Z,2.69
2018-12-10T21:36:10.290Z,2.82
2018-12-10T21:40:14.535Z,2.81
2018-12-10T21:44:18.707Z,2.82
2018-12-10T21:48:24.101Z,2.96
2018-12-10T21:52:28.179Z,3.00
2018-12-10T21:56:32.384Z,2.98
2018-12-10T22:00:37.290Z,2.99
2018-12-10T22:04:41.569Z,3.01
2018-12-10T22:08:45.629Z,3.01
2018-12-10T22:12:49.779Z,2.93
2018-12-10T22:16:55.268Z,3.02
2018-12-10T22:20:59.346Z,2.99
2018-12-10T22:25:03.640Z,2.91
2018-12-10T22:29:07.936Z,2.95
2018-12-10T22:33:12.165Z,2.95
2018-12-10T22:37:16.330Z,2.98
2018-12-10T22:41:22.555Z,3.08
2018-12-10T22:45:26.771Z,3.09
2018-12-10T22:49:31.018Z,3.15
2018-12-10T22:53:35.376Z,3.13
2018-12-10T22:57:40.080Z,3.03
2018-12-10T23:01:44.404Z,3.03
2018-12-10T23:05:48.798Z,3.02
2018-12-10T23:09:52.995Z,3.01
2018-12-10T23:13:56.951Z,3.03
2018-12-10T23:18:01.000Z,2.93
2018-12-10T23:22:05.170Z,2.78
2018-12-10T23:26:09.177Z,2.82
2018-12-10T23:30:13.278Z,2.75
2018-12-10T23:34:17.340Z,2.75
2018-12-10T23:38:21.818Z,2.80
2018-12-10T23:42:25.886Z,2.88
2018-12-10T23:46:30.084Z,2.72
